sensor_id;sensor_type;location;lat;lon;timestamp;pressure;altitude;pressure_sealevel;temperature;humidity
76496;BME280;65329;52.544;4.662;2023-04-19T00:00:45;117940.31;;;-139.74;0.00
76496;BME280;65329;52.544;4.662;2023-04-19T00:03:13;117940.31;;;-139.74;0.00
76496;BME280;65329;52.544;4.662;2023-04-19T00:05:43;117940.31;;;-139.74;0.00
76496;BME280;65329;52.544;4.662;2023-04-19T00:08:10;117940.31;;;-139.74;0.00
76496;BME280;65329;52.544;4.662;2023-04-19T00:10:39;117940.31;;;-139.74;0.00
76496;BME280;65329;52.544;4.662;2023-04-19T00:13:06;117940.31;;;-139.74;0.00
76496;BME280;65329;52.544;4.662;2023-04-19T00:15:33;117940.31;;;-139.74;0.00
76496;BME280;65329;52.544;4.662;2023-04-19T00:18:00;117940.31;;;-139.74;0.00
76496;BME280;65329;52.544;4.662;2023-04-19T00:20:28;117940.31;;;-139.74;0.00
76496;BME280;65329;52.544;4.662;2023-04-19T00:22:55;117940.31;;;-139.74;0.00
76496;BME280;65329;52.544;4.662;2023-04-19T00:25:25;117940.31;;;-139.74;0.00
76496;BME280;65329;52.544;4.662;2023-04-19T00:27:52;117940.31;;;-139.74;0.00
76496;BME280;65329;52.544;4.662;2023-04-19T00:30:19;117940.31;;;-139.74;0.00
76496;BME280;65329;52.544;4.662;2023-04-19T00:32:48;117940.31;;;-139.74;0.00
76496;BME280;65329;52.544;4.662;2023-04-19T00:35:15;117940.31;;;-139.74;0.00
76496;BME280;65329;52.544;4.662;2023-04-19T00:37:42;117940.31;;;-139.74;0.00
76496;BME280;65329;52.544;4.662;2023-04-19T00:40:12;117940.31;;;-139.74;0.00
76496;BME280;65329;52.544;4.662;2023-04-19T00:42:39;117940.31;;;-139.74;0.00
76496;BME280;65329;52.544;4.662;2023-04-19T00:45:06;117940.31;;;-139.74;0.00
76496;BME280;65329;52.544;4.662;2023-04-19T00:47:35;117940.31;;;-139.74;0.00
76496;BME280;65329;52.544;4.662;2023-04-19T00:50:02;117940.31;;;-139.74;0.00
76496;BME280;65329;52.544;4.662;2023-04-19T00:52:31;117940.31;;;-139.74;0.00
76496;BME280;65329;52.544;4.662;2023-04-19T00:54:59;117940.31;;;-139.74;0.00
76496;BME280;65329;52.544;4.662;2023-04-19T00:57:27;117940.31;;;-139.74;0.00
76496;BME280;65329;52.544;4.662;2023-04-19T00:59:55;117940.31;;;-139.74;0.00
76496;BME280;65329;52.544;4.662;2023-04-19T01:02:22;117940.31;;;-139.74;0.00
76496;BME280;65329;52.544;4.662;2023-04-19T01:04:50;117940.31;;;-139.74;0.00
76496;BME280;65329;52.544;4.662;2023-04-19T01:07:18;117940.31;;;-139.74;0.00
76496;BME280;65329;52.544;4.662;2023-04-19T01:09:45;117940.31;;;-139.74;0.00
76496;BME280;65329;52.544;4.662;2023-04-19T01:12:12;117940.31;;;-139.74;0.00
76496;BME280;65329;52.544;4.662;2023-04-19T01:14:41;117940.31;;;-139.74;0.00
76496;BME280;65329;52.544;4.662;2023-04-19T01:17:08;117940.31;;;-139.74;0.00
76496;BME280;65329;52.544;4.662;2023-04-19T01:19:36;117940.31;;;-139.74;0.00
76496;BME280;65329;52.544;4.662;2023-04-19T01:22:04;117940.31;;;-139.74;0.00
76496;BME280;65329;52.544;4.662;2023-04-19T01:24:32;117940.31;;;-139.74;0.00
76496;BME280;65329;52.544;4.662;2023-04-19T01:27:00;117940.31;;;-139.74;0.00
76496;BME280;65329;52.544;4.662;2023-04-19T01:29:27;117940.31;;;-139.74;0.00
76496;BME280;65329;52.544;4.662;2023-04-19T01:31:54;117940.31;;;-139.74;0.00
76496;BME280;65329;52.544;4.662;2023-04-19T01:34:22;117940.31;;;-139.74;0.00
76496;BME280;65329;52.544;4.662;2023-04-19T01:36:49;117940.31;;;-139.74;0.00
76496;BME280;65329;52.544;4.662;2023-04-19T01:39:16;117940.31;;;-139.74;0.00
76496;BME280;65329;52.544;4.662;2023-04-19T01:41:44;117940.31;;;-139.74;0.00
76496;BME280;65329;52.544;4.662;2023-04-19T01:44:11;117940.31;;;-139.74;0.00
76496;BME280;65329;52.544;4.662;2023-04-19T01:46:38;117940.31;;;-139.74;0.00
76496;BME280;65329;52.544;4.662;2023-04-19T01:49:08;117940.31;;;-139.74;0.00
76496;BME280;65329;52.544;4.662;2023-04-19T01:51:37;117940.31;;;-139.74;0.00
76496;BME280;65329;52.544;4.662;2023-04-19T01:54:04;117940.31;;;-139.74;0.00
76496;BME280;65329;52.544;4.662;2023-04-19T01:56:31;117940.31;;;-139.74;0.00
76496;BME280;65329;52.544;4.662;2023-04-19T01:59:00;117940.31;;;-139.74;0.00
76496;BME280;65329;52.544;4.662;2023-04-19T02:01:29;117940.31;;;-139.74;0.00
76496;BME280;65329;52.544;4.662;2023-04-19T02:03:57;117940.31;;;-139.74;0.00
76496;BME280;65329;52.544;4.662;2023-04-19T02:06:24;117940.31;;;-139.74;0.00
76496;BME280;65329;52.544;4.662;2023-04-19T02:08:52;117940.31;;;-139.74;0.00
76496;BME280;65329;52.544;4.662;2023-04-19T02:11:19;117940.31;;;-139.74;0.00
76496;BME280;65329;52.544;4.662;2023-04-19T02:13:48;117940.31;;;-139.74;0.00
76496;BME280;65329;52.544;4.662;2023-04-19T02:16:15;117940.31;;;-139.74;0.00
76496;BME280;65329;52.544;4.662;2023-04-19T02:18:42;117940.31;;;-139.74;0.00
76496;BME280;65329;52.544;4.662;2023-04-19T02:21:09;117940.31;;;-139.74;0.00
76496;BME280;65329;52.544;4.662;2023-04-19T02:23:36;117940.31;;;-139.74;0.00
76496;BME280;65329;52.544;4.662;2023-04-19T02:26:04;117940.31;;;-139.74;0.00
76496;BME280;65329;52.544;4.662;2023-04-19T02:28:31;117940.31;;;-139.74;0.00
76496;BME280;65329;52.544;4.662;2023-04-19T02:31:03;117940.31;;;-139.74;0.00
76496;BME280;65329;52.544;4.662;2023-04-19T02:33:33;117940.31;;;-139.74;0.00
76496;BME280;65329;52.544;4.662;2023-04-19T02:36:00;117940.31;;;-139.74;0.00
76496;BME280;65329;52.544;4.662;2023-04-19T02:38:27;117940.31;;;-139.74;0.00
76496;BME280;65329;52.544;4.662;2023-04-19T02:40:55;117940.31;;;-139.74;0.00
76496;BME280;65329;52.544;4.662;2023-04-19T02:43:21;117940.31;;;-139.74;0.00
76496;BME280;65329;52.544;4.662;2023-04-19T02:45:49;117940.31;;;-139.74;0.00
76496;BME280;65329;52.544;4.662;2023-04-19T02:48:16;117940.31;;;-139.74;0.00
76496;BME280;65329;52.544;4.662;2023-04-19T02:50:46;117940.31;;;-139.74;0.00
76496;BME280;65329;52.544;4.662;2023-04-19T02:53:13;117940.31;;;-139.74;0.00
76496;BME280;65329;52.544;4.662;2023-04-19T02:55:40;117940.31;;;-139.74;0.00
76496;BME280;65329;52.544;4.662;2023-04-19T02:58:14;117940.31;;;-139.74;0.00
76496;BME280;65329;52.544;4.662;2023-04-19T03:00:51;117940.31;;;-139.74;0.00
76496;BME280;65329;52.544;4.662;2023-04-19T03:03:20;117940.31;;;-139.74;0.00
76496;BME280;65329;52.544;4.662;2023-04-19T03:05:47;117940.31;;;-139.74;0.00
76496;BME280;65329;52.544;4.662;2023-04-19T03:08:14;117940.31;;;-139.74;0.00
76496;BME280;65329;52.544;4.662;2023-04-19T03:10:43;117940.31;;;-139.74;0.00
76496;BME280;65329;52.544;4.662;2023-04-19T03:13:10;117940.31;;;-139.74;0.00
76496;BME280;65329;52.544;4.662;2023-04-19T03:15:37;117940.31;;;-139.74;0.00
76496;BME280;65329;52.544;4.662;2023-04-19T03:18:05;117940.31;;;-139.74;0.00
76496;BME280;65329;52.544;4.662;2023-04-19T03:20:33;117940.31;;;-139.74;0.00
76496;BME280;65329;52.544;4.662;2023-04-19T03:23:01;117940.31;;;-139.74;0.00
76496;BME280;65329;52.544;4.662;2023-04-19T03:25:29;117940.31;;;-139.74;0.00
76496;BME280;65329;52.544;4.662;2023-04-19T03:28:09;117940.31;;;-139.74;0.00
76496;BME280;65329;52.544;4.662;2023-04-19T03:30:56;117940.31;;;-139.74;0.00
76496;BME280;65329;52.544;4.662;2023-04-19T03:33:23;117940.31;;;-139.74;0.00
76496;BME280;65329;52.544;4.662;2023-04-19T03:35:52;117940.31;;;-139.74;0.00
76496;BME280;65329;52.544;4.662;2023-04-19T03:38:19;117940.31;;;-139.74;0.00
76496;BME280;65329;52.544;4.662;2023-04-19T03:40:46;117940.31;;;-139.74;0.00
76496;BME280;65329;52.544;4.662;2023-04-19T03:43:17;117940.31;;;-139.74;0.00
76496;BME280;65329;52.544;4.662;2023-04-19T03:45:44;117940.31;;;-139.74;0.00
76496;BME280;65329;52.544;4.662;2023-04-19T03:48:11;117940.31;;;-139.74;0.00
76496;BME280;65329;52.544;4.662;2023-04-19T03:50:39;117940.31;;;-139.74;0.00
76496;BME280;65329;52.544;4.662;2023-04-19T03:53:09;117940.31;;;-139.74;0.00
76496;BME280;65329;52.544;4.662;2023-04-19T03:55:37;117940.31;;;-139.74;0.00
76496;BME280;65329;52.544;4.662;2023-04-19T03:58:04;117940.31;;;-139.74;0.00
76496;BME280;65329;52.544;4.662;2023-04-19T04:00:42;117940.31;;;-139.74;0.00
76496;BME280;65329;52.544;4.662;2023-04-19T04:03:11;117940.31;;;-139.74;0.00
76496;BME280;65329;52.544;4.662;2023-04-19T04:05:39;117940.31;;;-139.74;0.00
76496;BME280;65329;52.544;4.662;2023-04-19T04:08:06;117940.31;;;-139.74;0.00
76496;BME280;65329;52.544;4.662;2023-04-19T04:10:33;117940.31;;;-139.74;0.00
76496;BME280;65329;52.544;4.662;2023-04-19T04:13:00;117940.31;;;-139.74;0.00
76496;BME280;65329;52.544;4.662;2023-04-19T04:15:41;117940.31;;;-139.74;0.00
76496;BME280;65329;52.544;4.662;2023-04-19T04:18:11;117940.31;;;-139.74;0.00
76496;BME280;65329;52.544;4.662;2023-04-19T04:20:38;117940.31;;;-139.74;0.00
76496;BME280;65329;52.544;4.662;2023-04-19T04:23:08;117940.31;;;-139.74;0.00
76496;BME280;65329;52.544;4.662;2023-04-19T04:25:40;117940.31;;;-139.74;0.00
76496;BME280;65329;52.544;4.662;2023-04-19T04:28:11;117940.31;;;-139.74;0.00
76496;BME280;65329;52.544;4.662;2023-04-19T04:30:40;117940.31;;;-139.74;0.00
76496;BME280;65329;52.544;4.662;2023-04-19T04:33:09;117940.31;;;-139.74;0.00
76496;BME280;65329;52.544;4.662;2023-04-19T04:35:39;117940.31;;;-139.74;0.00
76496;BME280;65329;52.544;4.662;2023-04-19T04:38:12;117940.31;;;-139.74;0.00
76496;BME280;65329;52.544;4.662;2023-04-19T04:40:52;117940.31;;;-139.74;0.00
76496;BME280;65329;52.544;4.662;2023-04-19T04:43:24;117940.31;;;-139.74;0.00
76496;BME280;65329;52.544;4.662;2023-04-19T04:45:51;117940.31;;;-139.74;0.00
76496;BME280;65329;52.544;4.662;2023-04-19T04:48:22;117940.31;;;-139.74;0.00
76496;BME280;65329;52.544;4.662;2023-04-19T04:50:50;117940.31;;;-139.74;0.00
76496;BME280;65329;52.544;4.662;2023-04-19T04:53:18;117940.31;;;-139.74;0.00
76496;BME280;65329;52.544;4.662;2023-04-19T04:55:46;117940.31;;;-139.74;0.00
76496;BME280;65329;52.544;4.662;2023-04-19T04:58:13;117940.31;;;-139.74;0.00
76496;BME280;65329;52.544;4.662;2023-04-19T05:01:06;117940.31;;;-139.74;0.00
76496;BME280;65329;52.544;4.662;2023-04-19T05:03:37;117940.31;;;-139.74;0.00
76496;BME280;65329;52.544;4.662;2023-04-19T05:06:09;117940.31;;;-139.74;0.00
76496;BME280;65329;52.544;4.662;2023-04-19T05:08:37;117940.31;;;-139.74;0.00
76496;BME280;65329;52.544;4.662;2023-04-19T05:11:13;117940.31;;;-139.74;0.00
76496;BME280;65329;52.544;4.662;2023-04-19T05:13:42;117940.31;;;-139.74;0.00
76496;BME280;65329;52.544;4.662;2023-04-19T05:16:09;117940.31;;;-139.74;0.00
76496;BME280;65329;52.544;4.662;2023-04-19T05:18:37;117940.31;;;-139.74;0.00
76496;BME280;65329;52.544;4.662;2023-04-19T05:21:05;117940.31;;;-139.74;0.00
76496;BME280;65329;52.544;4.662;2023-04-19T05:23:35;117940.31;;;-139.74;0.00
76496;BME280;65329;52.544;4.662;2023-04-19T05:26:02;117940.31;;;-139.74;0.00
76496;BME280;65329;52.544;4.662;2023-04-19T05:28:30;117940.31;;;-139.74;0.00
76496;BME280;65329;52.544;4.662;2023-04-19T05:31:03;117940.31;;;-139.74;0.00
76496;BME280;65329;52.544;4.662;2023-04-19T05:33:37;117940.31;;;-139.74;0.00
76496;BME280;65329;52.544;4.662;2023-04-19T05:36:05;117940.31;;;-139.74;0.00
76496;BME280;65329;52.544;4.662;2023-04-19T05:38:33;117940.31;;;-139.74;0.00
76496;BME280;65329;52.544;4.662;2023-04-19T05:41:02;117940.31;;;-139.74;0.00
76496;BME280;65329;52.544;4.662;2023-04-19T05:43:29;117940.31;;;-139.74;0.00
76496;BME280;65329;52.544;4.662;2023-04-19T05:45:57;117940.31;;;-139.74;0.00
76496;BME280;65329;52.544;4.662;2023-04-19T05:48:24;117940.31;;;-139.74;0.00
76496;BME280;65329;52.544;4.662;2023-04-19T05:51:06;117940.31;;;-139.74;0.00
76496;BME280;65329;52.544;4.662;2023-04-19T05:53:52;117940.31;;;-139.74;0.00
76496;BME280;65329;52.544;4.662;2023-04-19T05:56:23;117940.31;;;-139.74;0.00
76496;BME280;65329;52.544;4.662;2023-04-19T05:58:50;117940.31;;;-139.74;0.00
76496;BME280;65329;52.544;4.662;2023-04-19T06:01:17;117940.31;;;-139.74;0.00
76496;BME280;65329;52.544;4.662;2023-04-19T06:03:45;117940.31;;;-139.74;0.00
76496;BME280;65329;52.544;4.662;2023-04-19T06:06:12;117940.31;;;-139.74;0.00
76496;BME280;65329;52.544;4.662;2023-04-19T06:08:40;117940.31;;;-139.74;0.00
76496;BME280;65329;52.544;4.662;2023-04-19T06:11:08;117940.31;;;-139.74;0.00
76496;BME280;65329;52.544;4.662;2023-04-19T06:13:50;117940.31;;;-139.74;0.00
76496;BME280;65329;52.544;4.662;2023-04-19T06:16:17;117940.31;;;-139.74;0.00
76496;BME280;65329;52.544;4.662;2023-04-19T06:18:44;117940.31;;;-139.74;0.00
76496;BME280;65329;52.544;4.662;2023-04-19T06:21:11;117940.31;;;-139.74;0.00
76496;BME280;65329;52.544;4.662;2023-04-19T06:23:38;-18597.69;;;-139.74;0.00
76496;BME280;65329;52.544;4.662;2023-04-19T06:26:05;-14925.41;;;-139.74;0.00
76496;BME280;65329;52.544;4.662;2023-04-19T06:28:32;-13613.59;;;-139.74;0.00
76496;BME280;65329;52.544;4.662;2023-04-19T06:30:59;-10988.56;;;-139.74;0.00
76496;BME280;65329;52.544;4.662;2023-04-19T06:33:26;4272.00;;;-139.74;0.00
76496;BME280;65329;52.544;4.662;2023-04-19T06:35:53;38216.69;;;-139.74;0.00
76496;BME280;65329;52.544;4.662;2023-04-19T06:38:20;49000.03;;;-139.74;0.00
76496;BME280;65329;52.544;4.662;2023-04-19T06:40:47;49100.03;;;-139.74;0.00
76496;BME280;65329;52.544;4.662;2023-04-19T06:43:14;49112.53;;;-139.74;0.00
76496;BME280;65329;52.544;4.662;2023-04-19T06:45:41;49133.38;;;-139.74;0.00
76496;BME280;65329;52.544;4.662;2023-04-19T06:48:08;49133.38;;;-139.74;0.00
76496;BME280;65329;52.544;4.662;2023-04-19T06:50:39;49145.88;;;-139.74;0.00
76496;BME280;65329;52.544;4.662;2023-04-19T06:53:06;49137.53;;;-139.74;0.00
76496;BME280;65329;52.544;4.662;2023-04-19T06:55:33;49145.88;;;-139.74;0.00
76496;BME280;65329;52.544;4.662;2023-04-19T06:58:00;49137.53;;;-139.74;0.00
76496;BME280;65329;52.544;4.662;2023-04-19T07:00:27;49108.38;;;-139.74;0.00
76496;BME280;65329;52.544;4.662;2023-04-19T07:02:54;49091.72;;;-139.74;0.00
76496;BME280;65329;52.544;4.662;2023-04-19T07:05:22;48991.69;;;-139.74;0.00
76496;BME280;65329;52.544;4.662;2023-04-19T07:07:49;48933.38;;;-139.74;0.00
76496;BME280;65329;52.544;4.662;2023-04-19T07:10:19;48550.06;;;-139.74;0.00
76496;BME280;65329;52.544;4.662;2023-04-19T07:12:45;47879.34;;;-139.74;0.00
76496;BME280;65329;52.544;4.662;2023-04-19T07:15:14;47835.59;;;-139.74;0.00
76496;BME280;65329;52.544;4.662;2023-04-19T07:17:41;47058.81;;;-139.74;0.00
76496;BME280;65329;52.544;4.662;2023-04-19T07:20:08;46205.16;;;-139.74;0.00
76496;BME280;65329;52.544;4.662;2023-04-19T07:22:36;45434.91;;;-139.74;0.00
76496;BME280;65329;52.544;4.662;2023-04-19T07:25:03;33457.53;;;-139.74;0.00
76496;BME280;65329;52.544;4.662;2023-04-19T07:27:31;28602.59;;;-139.74;0.00
76496;BME280;65329;52.544;4.662;2023-04-19T07:29:58;29502.22;;;-139.74;0.00
76496;BME280;65329;52.544;4.662;2023-04-19T07:32:26;28076.22;;;-139.74;0.00
76496;BME280;65329;52.544;4.662;2023-04-19T07:34:53;26659.00;;;-139.74;0.00
76496;BME280;65329;52.544;4.662;2023-04-19T07:37:20;24772.28;;;-139.74;0.00
76496;BME280;65329;52.544;4.662;2023-04-19T07:39:47;27630.69;;;-139.74;0.00
76496;BME280;65329;52.544;4.662;2023-04-19T07:42:14;24231.91;;;-139.74;0.00
76496;BME280;65329;52.544;4.662;2023-04-19T07:44:41;16197.19;;;-139.74;0.00
76496;BME280;65329;52.544;4.662;2023-04-19T07:47:08;18050.84;;;-139.74;0.00
76496;BME280;65329;52.544;4.662;2023-04-19T07:49:36;18422.91;;;-139.74;0.00
76496;BME280;65329;52.544;4.662;2023-04-19T07:52:06;16734.38;;;-139.74;0.00
76496;BME280;65329;52.544;4.662;2023-04-19T07:54:33;15965.81;;;-139.74;0.00
76496;BME280;65329;52.544;4.662;2023-04-19T07:57:01;17554.78;;;-139.74;0.00
76496;BME280;65329;52.544;4.662;2023-04-19T07:59:28;14365.09;;;-139.74;0.00
76496;BME280;65329;52.544;4.662;2023-04-19T08:01:56;13888.09;;;-139.74;0.00
76496;BME280;65329;52.544;4.662;2023-04-19T08:04:24;12085.97;;;-139.74;0.00
76496;BME280;65329;52.544;4.662;2023-04-19T08:06:52;8750.22;;;-139.74;0.00
76496;BME280;65329;52.544;4.662;2023-04-19T08:09:19;2772.88;;;-139.74;0.00
76496;BME280;65329;52.544;4.662;2023-04-19T08:11:46;-1186.34;;;-139.74;0.00
76496;BME280;65329;52.544;4.662;2023-04-19T08:14:13;-672.13;;;-139.74;0.00
76496;BME280;65329;52.544;4.662;2023-04-19T08:16:58;-4372.97;;;-139.74;0.00
76496;BME280;65329;52.544;4.662;2023-04-19T08:19:28;-4545.56;;;-139.74;0.00
76496;BME280;65329;52.544;4.662;2023-04-19T08:21:55;-5692.06;;;-139.74;0.00
76496;BME280;65329;52.544;4.662;2023-04-19T08:24:23;-5860.50;;;-139.74;0.00
76496;BME280;65329;52.544;4.662;2023-04-19T08:26:50;-9494.78;;;-139.74;0.00
76496;BME280;65329;52.544;4.662;2023-04-19T08:29:20;-10801.88;;;-139.74;0.00
76496;BME280;65329;52.544;4.662;2023-04-19T08:31:48;-11431.66;;;-139.74;0.00
76496;BME280;65329;52.544;4.662;2023-04-19T08:34:15;-12239.78;;;-139.74;0.00
76496;BME280;65329;52.544;4.662;2023-04-19T08:36:49;-17492.44;;;-139.74;0.00
76496;BME280;65329;52.544;4.662;2023-04-19T08:39:32;-18071.97;;;-139.74;0.00
76496;BME280;65329;52.544;4.662;2023-04-19T08:42:04;-16486.72;;;-139.74;0.00
76496;BME280;65329;52.544;4.662;2023-04-19T08:44:49;-17174.97;;;-139.74;0.00
76496;BME280;65329;52.544;4.662;2023-04-19T08:47:39;-18597.69;;;-139.74;0.00
76496;BME280;65329;52.544;4.662;2023-04-19T08:50:24;-18597.69;;;-139.74;0.00
76496;BME280;65329;52.544;4.662;2023-04-19T08:53:01;-18597.69;;;-139.74;0.00
76496;BME280;65329;52.544;4.662;2023-04-19T08:55:48;-18597.69;;;-139.74;0.00
76496;BME280;65329;52.544;4.662;2023-04-19T08:58:20;-18597.69;;;-139.74;0.00
76496;BME280;65329;52.544;4.662;2023-04-19T09:01:06;-18597.69;;;-139.74;0.00
76496;BME280;65329;52.544;4.662;2023-04-19T09:03:47;-18597.69;;;-139.74;0.00
76496;BME280;65329;52.544;4.662;2023-04-19T09:06:38;-18597.69;;;-139.74;0.00
76496;BME280;65329;52.544;4.662;2023-04-19T09:09:26;-18597.69;;;-139.74;0.00
76496;BME280;65329;52.544;4.662;2023-04-19T09:11:57;-18597.69;;;-139.74;0.00
76496;BME280;65329;52.544;4.662;2023-04-19T09:14:26;-18597.69;;;-139.74;0.00
76496;BME280;65329;52.544;4.662;2023-04-19T09:17:10;-18597.69;;;-139.74;0.00
76496;BME280;65329;52.544;4.662;2023-04-19T09:19:45;-18597.69;;;-139.74;0.00
76496;BME280;65329;52.544;4.662;2023-04-19T09:22:13;-18597.69;;;-139.74;0.00
76496;BME280;65329;52.544;4.662;2023-04-19T09:24:41;-18597.69;;;-139.74;0.00
76496;BME280;65329;52.544;4.662;2023-04-19T09:27:11;-18597.69;;;-139.74;0.00
76496;BME280;65329;52.544;4.662;2023-04-19T09:29:38;-18597.69;;;-139.74;0.00
76496;BME280;65329;52.544;4.662;2023-04-19T09:32:06;-18597.69;;;-139.74;0.00
76496;BME280;65329;52.544;4.662;2023-04-19T09:34:33;-18597.69;;;-139.74;0.00
76496;BME280;65329;52.544;4.662;2023-04-19T09:37:13;-18597.69;;;-139.74;0.00
76496;BME280;65329;52.544;4.662;2023-04-19T09:40:00;-18597.69;;;-139.74;0.00
76496;BME280;65329;52.544;4.662;2023-04-19T09:42:43;-18597.69;;;-139.74;0.00
76496;BME280;65329;52.544;4.662;2023-04-19T09:45:18;-18597.69;;;-139.74;0.00
76496;BME280;65329;52.544;4.662;2023-04-19T09:48:02;-18597.69;;;-139.74;0.00
76496;BME280;65329;52.544;4.662;2023-04-19T09:50:29;-18597.69;;;-139.74;0.00
76496;BME280;65329;52.544;4.662;2023-04-19T09:52:59;-18597.69;;;-139.74;0.00
76496;BME280;65329;52.544;4.662;2023-04-19T09:55:26;-18597.69;;;-139.74;0.00
76496;BME280;65329;52.544;4.662;2023-04-19T09:58:01;-18597.69;;;-139.74;0.00
76496;BME280;65329;52.544;4.662;2023-04-19T10:00:28;-18597.69;;;-139.74;0.00
76496;BME280;65329;52.544;4.662;2023-04-19T10:03:08;-18597.69;;;-139.74;0.00
76496;BME280;65329;52.544;4.662;2023-04-19T10:05:37;-18597.69;;;-139.74;0.00
76496;BME280;65329;52.544;4.662;2023-04-19T10:08:07;-18597.69;;;-139.74;0.00
76496;BME280;65329;52.544;4.662;2023-04-19T10:10:35;-18597.69;;;-139.74;0.00
76496;BME280;65329;52.544;4.662;2023-04-19T10:13:12;-18597.69;;;-139.74;0.00
76496;BME280;65329;52.544;4.662;2023-04-19T10:15:48;-18597.69;;;-139.74;0.00
76496;BME280;65329;52.544;4.662;2023-04-19T10:18:21;-18597.69;;;-139.74;0.00
76496;BME280;65329;52.544;4.662;2023-04-19T10:20:58;-18597.69;;;-139.74;0.00
76496;BME280;65329;52.544;4.662;2023-04-19T10:23:27;-18597.69;;;-139.74;0.00
76496;BME280;65329;52.544;4.662;2023-04-19T10:25:56;-18597.69;;;-139.74;0.00
76496;BME280;65329;52.544;4.662;2023-04-19T10:28:23;-18597.69;;;-139.74;0.00
76496;BME280;65329;52.544;4.662;2023-04-19T10:30:52;-18597.69;;;-139.74;0.00
76496;BME280;65329;52.544;4.662;2023-04-19T10:33:28;-18597.69;;;-139.74;0.00
76496;BME280;65329;52.544;4.662;2023-04-19T10:35:58;-18597.69;;;-139.74;0.00
76496;BME280;65329;52.544;4.662;2023-04-19T10:38:36;-18597.69;;;-139.74;0.00
76496;BME280;65329;52.544;4.662;2023-04-19T10:41:03;-18597.69;;;-139.74;0.00
76496;BME280;65329;52.544;4.662;2023-04-19T10:44:07;-18597.69;;;-139.74;0.00
76496;BME280;65329;52.544;4.662;2023-04-19T10:46:36;-18597.69;;;-139.74;0.00
76496;BME280;65329;52.544;4.662;2023-04-19T10:49:06;-18597.69;;;-139.74;0.00
76496;BME280;65329;52.544;4.662;2023-04-19T10:51:39;-18597.69;;;-139.74;0.00
76496;BME280;65329;52.544;4.662;2023-04-19T10:54:34;-18597.69;;;-139.74;0.00
76496;BME280;65329;52.544;4.662;2023-04-19T10:57:05;-18597.69;;;-139.74;0.00
76496;BME280;65329;52.544;4.662;2023-04-19T10:59:34;-18597.69;;;-139.74;0.00
76496;BME280;65329;52.544;4.662;2023-04-19T11:02:48;-18597.69;;;-139.74;0.00
76496;BME280;65329;52.544;4.662;2023-04-19T11:04:59;-18597.69;;;-139.74;0.00
76496;BME280;65329;52.544;4.662;2023-04-19T11:07:27;-18597.69;;;-139.74;0.00
76496;BME280;65329;52.544;4.662;2023-04-19T11:09:54;-18597.69;;;-139.74;0.00
76496;BME280;65329;52.544;4.662;2023-04-19T11:12:22;-18597.69;;;-139.74;0.00
76496;BME280;65329;52.544;4.662;2023-04-19T11:14:56;-18597.69;;;-139.74;0.00
76496;BME280;65329;52.544;4.662;2023-04-19T11:17:24;-18597.69;;;-139.74;0.00
76496;BME280;65329;52.544;4.662;2023-04-19T11:20:05;-18597.69;;;-139.74;0.00
76496;BME280;65329;52.544;4.662;2023-04-19T11:22:34;-18597.69;;;-139.74;0.00
76496;BME280;65329;52.544;4.662;2023-04-19T11:25:09;-18597.69;;;-139.74;0.00
76496;BME280;65329;52.544;4.662;2023-04-19T11:27:37;-18597.69;;;-139.74;0.00
76496;BME280;65329;52.544;4.662;2023-04-19T11:30:10;-18597.69;;;-139.74;0.00
76496;BME280;65329;52.544;4.662;2023-04-19T11:32:44;-18597.69;;;-139.74;0.00
76496;BME280;65329;52.544;4.662;2023-04-19T11:35:11;-18597.69;;;-139.74;0.00
76496;BME280;65329;52.544;4.662;2023-04-19T11:37:38;-18597.69;;;-139.74;0.00
76496;BME280;65329;52.544;4.662;2023-04-19T11:40:06;-18597.69;;;-139.74;0.00
76496;BME280;65329;52.544;4.662;2023-04-19T11:42:34;-18597.69;;;-139.74;0.00
76496;BME280;65329;52.544;4.662;2023-04-19T11:45:02;-18597.69;;;-139.74;0.00
76496;BME280;65329;52.544;4.662;2023-04-19T11:47:29;-18597.69;;;-139.74;0.00
76496;BME280;65329;52.544;4.662;2023-04-19T11:50:31;-18597.69;;;-139.74;0.00
76496;BME280;65329;52.544;4.662;2023-04-19T11:53:14;-18597.69;;;-139.74;0.00
76496;BME280;65329;52.544;4.662;2023-04-19T11:55:43;-18597.69;;;-139.74;0.00
76496;BME280;65329;52.544;4.662;2023-04-19T11:58:35;-18597.69;;;-139.74;0.00
76496;BME280;65329;52.544;4.662;2023-04-19T12:01:20;-18597.69;;;-139.74;0.00
76496;BME280;65329;52.544;4.662;2023-04-19T12:06:17;-18597.69;;;-139.74;0.00
76496;BME280;65329;52.544;4.662;2023-04-19T12:08:46;-18597.69;;;-139.74;0.00
76496;BME280;65329;52.544;4.662;2023-04-19T12:11:15;-18597.69;;;-139.74;0.00
76496;BME280;65329;52.544;4.662;2023-04-19T12:13:42;-18597.69;;;-139.74;0.00
76496;BME280;65329;52.544;4.662;2023-04-19T12:16:10;-18597.69;;;-139.74;0.00
76496;BME280;65329;52.544;4.662;2023-04-19T12:18:56;-18597.69;;;-139.74;0.00
76496;BME280;65329;52.544;4.662;2023-04-19T12:21:28;-18597.69;;;-139.74;0.00
76496;BME280;65329;52.544;4.662;2023-04-19T12:23:59;-18597.69;;;-139.74;0.00
76496;BME280;65329;52.544;4.662;2023-04-19T12:26:28;-18597.69;;;-139.74;0.00
76496;BME280;65329;52.544;4.662;2023-04-19T12:28:56;-18597.69;;;-139.74;0.00
76496;BME280;65329;52.544;4.662;2023-04-19T12:31:24;-18597.69;;;-139.74;0.00
76496;BME280;65329;52.544;4.662;2023-04-19T12:33:52;-18597.69;;;-139.74;0.00
76496;BME280;65329;52.544;4.662;2023-04-19T12:36:19;-18597.69;;;-139.74;0.00
76496;BME280;65329;52.544;4.662;2023-04-19T12:38:46;-18597.69;;;-139.74;0.00
76496;BME280;65329;52.544;4.662;2023-04-19T12:41:14;-18597.69;;;-139.74;0.00
76496;BME280;65329;52.544;4.662;2023-04-19T12:43:41;-18597.69;;;-139.74;0.00
76496;BME280;65329;52.544;4.662;2023-04-19T12:46:08;-18597.69;;;-139.74;0.00
76496;BME280;65329;52.544;4.662;2023-04-19T12:48:35;-18597.69;;;-139.74;0.00
76496;BME280;65329;52.544;4.662;2023-04-19T12:51:02;-18597.69;;;-139.74;0.00
76496;BME280;65329;52.544;4.662;2023-04-19T12:53:29;-18597.69;;;-139.74;0.00
76496;BME280;65329;52.544;4.662;2023-04-19T12:55:57;-18597.69;;;-139.74;0.00
76496;BME280;65329;52.544;4.662;2023-04-19T12:58:24;-18597.69;;;-139.74;0.00